sensor_id;sensor_type;location;lat;lon;timestamp;P1;durP1;ratioP1;P2;durP2;ratioP2
3747;SDS011;1889;50.058;8.688;2022-07-23T00:01:06;6.60;;;4.87;;
3747;SDS011;1889;50.058;8.688;2022-07-23T00:03:35;5.17;;;4.43;;
3747;SDS011;1889;50.058;8.688;2022-07-23T00:06:05;8.13;;;5.03;;
3747;SDS011;1889;50.058;8.688;2022-07-23T00:08:34;4.80;;;4.40;;
3747;SDS011;1889;50.058;8.688;2022-07-23T00:11:03;4.90;;;4.50;;
3747;SDS011;1889;50.058;8.688;2022-07-23T00:13:32;9.87;;;5.33;;
3747;SDS011;1889;50.058;8.688;2022-07-23T00:16:01;5.20;;;4.80;;
3747;SDS011;1889;50.058;8.688;2022-07-23T00:18:31;5.40;;;4.90;;
3747;SDS011;1889;50.058;8.688;2022-07-23T00:21:00;5.80;;;5.20;;
3747;SDS011;1889;50.058;8.688;2022-07-23T00:23:29;5.70;;;5.10;;
3747;SDS011;1889;50.058;8.688;2022-07-23T00:25:58;6.60;;;5.50;;
3747;SDS011;1889;50.058;8.688;2022-07-23T00:28:27;5.57;;;5.07;;
3747;SDS011;1889;50.058;8.688;2022-07-23T00:30:56;5.43;;;4.93;;
3747;SDS011;1889;50.058;8.688;2022-07-23T00:33:25;6.37;;;4.70;;
3747;SDS011;1889;50.058;8.688;2022-07-23T00:35:54;7.47;;;4.80;;
3747;SDS011;1889;50.058;8.688;2022-07-23T00:38:23;5.13;;;4.63;;
3747;SDS011;1889;50.058;8.688;2022-07-23T00:40:52;5.63;;;4.80;;
3747;SDS011;1889;50.058;8.688;2022-07-23T00:43:21;5.60;;;5.10;;
3747;SDS011;1889;50.058;8.688;2022-07-23T00:45:51;6.23;;;4.73;;
3747;SDS011;1889;50.058;8.688;2022-07-23T00:48:20;4.90;;;4.40;;
3747;SDS011;1889;50.058;8.688;2022-07-23T00:50:49;6.87;;;4.57;;
3747;SDS011;1889;50.058;8.688;2022-07-23T00:53:18;10.23;;;4.90;;
3747;SDS011;1889;50.058;8.688;2022-07-23T00:55:48;4.70;;;4.30;;
3747;SDS011;1889;50.058;8.688;2022-07-23T00:58:17;4.93;;;4.43;;
3747;SDS011;1889;50.058;8.688;2022-07-23T01:00:47;492.70;;;153.47;;
3747;SDS011;1889;50.058;8.688;2022-07-23T01:03:16;5.10;;;4.60;;
3747;SDS011;1889;50.058;8.688;2022-07-23T01:05:45;1561.30;;;690.23;;
3747;SDS011;1889;50.058;8.688;2022-07-23T01:08:14;5.20;;;4.63;;
3747;SDS011;1889;50.058;8.688;2022-07-23T01:10:44;5.50;;;5.00;;
3747;SDS011;1889;50.058;8.688;2022-07-23T01:13:14;5.53;;;5.03;;
3747;SDS011;1889;50.058;8.688;2022-07-23T01:15:43;5.40;;;4.80;;
3747;SDS011;1889;50.058;8.688;2022-07-23T01:18:12;6.97;;;5.57;;
3747;SDS011;1889;50.058;8.688;2022-07-23T01:20:41;8.03;;;6.20;;
3747;SDS011;1889;50.058;8.688;2022-07-23T01:23:10;8.27;;;5.73;;
3747;SDS011;1889;50.058;8.688;2022-07-23T01:25:47;7.20;;;5.30;;
3747;SDS011;1889;50.058;8.688;2022-07-23T01:28:17;5.97;;;5.37;;
3747;SDS011;1889;50.058;8.688;2022-07-23T01:30:46;5.53;;;4.90;;
3747;SDS011;1889;50.058;8.688;2022-07-23T01:33:16;6.30;;;5.33;;
3747;SDS011;1889;50.058;8.688;2022-07-23T01:35:45;7.10;;;5.10;;
3747;SDS011;1889;50.058;8.688;2022-07-23T01:38:14;7.13;;;5.27;;
3747;SDS011;1889;50.058;8.688;2022-07-23T01:40:43;6.23;;;5.60;;
3747;SDS011;1889;50.058;8.688;2022-07-23T01:43:12;5.83;;;4.43;;
3747;SDS011;1889;50.058;8.688;2022-07-23T01:45:41;6.77;;;6.07;;
3747;SDS011;1889;50.058;8.688;2022-07-23T01:48:11;5.63;;;4.97;;
3747;SDS011;1889;50.058;8.688;2022-07-23T01:50:40;6.07;;;5.33;;
3747;SDS011;1889;50.058;8.688;2022-07-23T01:53:09;5.73;;;5.23;;
3747;SDS011;1889;50.058;8.688;2022-07-23T01:55:38;5.47;;;4.73;;
3747;SDS011;1889;50.058;8.688;2022-07-23T01:58:07;6.43;;;5.77;;
3747;SDS011;1889;50.058;8.688;2022-07-23T02:00:36;6.77;;;6.07;;
3747;SDS011;1889;50.058;8.688;2022-07-23T02:03:05;8.57;;;5.60;;
3747;SDS011;1889;50.058;8.688;2022-07-23T02:05:34;6.03;;;5.33;;
3747;SDS011;1889;50.058;8.688;2022-07-23T02:08:03;5.57;;;5.07;;
3747;SDS011;1889;50.058;8.688;2022-07-23T02:10:32;6.07;;;5.47;;
3747;SDS011;1889;50.058;8.688;2022-07-23T02:13:01;6.30;;;5.70;;
3747;SDS011;1889;50.058;8.688;2022-07-23T02:15:31;5.63;;;5.10;;
3747;SDS011;1889;50.058;8.688;2022-07-23T02:18:00;6.83;;;5.17;;
3747;SDS011;1889;50.058;8.688;2022-07-23T02:20:29;13.10;;;5.80;;
3747;SDS011;1889;50.058;8.688;2022-07-23T02:22:58;6.80;;;6.10;;
3747;SDS011;1889;50.058;8.688;2022-07-23T02:25:27;5.87;;;5.37;;
3747;SDS011;1889;50.058;8.688;2022-07-23T02:27:56;7.53;;;5.90;;
3747;SDS011;1889;50.058;8.688;2022-07-23T02:30:25;6.10;;;5.43;;
3747;SDS011;1889;50.058;8.688;2022-07-23T02:32:55;6.50;;;5.90;;
3747;SDS011;1889;50.058;8.688;2022-07-23T02:35:24;6.40;;;5.80;;
3747;SDS011;1889;50.058;8.688;2022-07-23T02:37:53;9.70;;;5.33;;
3747;SDS011;1889;50.058;8.688;2022-07-23T02:40:22;7.17;;;5.63;;
3747;SDS011;1889;50.058;8.688;2022-07-23T02:42:51;5.97;;;5.37;;
3747;SDS011;1889;50.058;8.688;2022-07-23T02:45:20;7.13;;;5.10;;
3747;SDS011;1889;50.058;8.688;2022-07-23T02:47:49;5.50;;;5.00;;
3747;SDS011;1889;50.058;8.688;2022-07-23T02:50:18;7.30;;;5.17;;
3747;SDS011;1889;50.058;8.688;2022-07-23T02:52:47;5.83;;;5.20;;
3747;SDS011;1889;50.058;8.688;2022-07-23T02:55:16;5.80;;;5.30;;
3747;SDS011;1889;50.058;8.688;2022-07-23T02:57:45;5.97;;;5.03;;
3747;SDS011;1889;50.058;8.688;2022-07-23T03:00:15;7.33;;;5.53;;
3747;SDS011;1889;50.058;8.688;2022-07-23T03:02:44;6.93;;;5.53;;
3747;SDS011;1889;50.058;8.688;2022-07-23T03:05:13;6.10;;;5.47;;
3747;SDS011;1889;50.058;8.688;2022-07-23T03:07:42;5.97;;;5.37;;
3747;SDS011;1889;50.058;8.688;2022-07-23T03:10:11;6.50;;;5.27;;
3747;SDS011;1889;50.058;8.688;2022-07-23T03:12:40;6.30;;;5.23;;
3747;SDS011;1889;50.058;8.688;2022-07-23T03:15:09;5.93;;;5.33;;
3747;SDS011;1889;50.058;8.688;2022-07-23T03:17:38;6.07;;;5.47;;
3747;SDS011;1889;50.058;8.688;2022-07-23T03:20:07;6.80;;;5.37;;
3747;SDS011;1889;50.058;8.688;2022-07-23T03:22:37;5.63;;;4.77;;
3747;SDS011;1889;50.058;8.688;2022-07-23T03:25:06;5.97;;;5.37;;
3747;SDS011;1889;50.058;8.688;2022-07-23T03:27:36;7.77;;;5.53;;
3747;SDS011;1889;50.058;8.688;2022-07-23T03:30:05;8.27;;;5.37;;
3747;SDS011;1889;50.058;8.688;2022-07-23T03:32:35;6.07;;;5.47;;
3747;SDS011;1889;50.058;8.688;2022-07-23T03:35:04;5.67;;;5.17;;
3747;SDS011;1889;50.058;8.688;2022-07-23T03:37:33;5.57;;;4.90;;
3747;SDS011;1889;50.058;8.688;2022-07-23T03:40:02;6.37;;;5.53;;
3747;SDS011;1889;50.058;8.688;2022-07-23T03:42:32;8.40;;;5.10;;
3747;SDS011;1889;50.058;8.688;2022-07-23T03:45:01;5.77;;;4.90;;
3747;SDS011;1889;50.058;8.688;2022-07-23T03:47:30;6.03;;;5.40;;
3747;SDS011;1889;50.058;8.688;2022-07-23T03:49:59;6.70;;;5.43;;
3747;SDS011;1889;50.058;8.688;2022-07-23T03:52:28;6.40;;;5.80;;
3747;SDS011;1889;50.058;8.688;2022-07-23T03:54:57;6.90;;;5.53;;
3747;SDS011;1889;50.058;8.688;2022-07-23T03:57:26;6.47;;;5.40;;
3747;SDS011;1889;50.058;8.688;2022-07-23T03:59:55;6.67;;;5.70;;
3747;SDS011;1889;50.058;8.688;2022-07-23T04:02:24;5.23;;;4.83;;
3747;SDS011;1889;50.058;8.688;2022-07-23T04:04:53;6.37;;;5.50;;
3747;SDS011;1889;50.058;8.688;2022-07-23T04:07:22;6.80;;;5.70;;
3747;SDS011;1889;50.058;8.688;2022-07-23T04:09:51;6.43;;;5.63;;
3747;SDS011;1889;50.058;8.688;2022-07-23T04:12:20;7.20;;;6.50;;
3747;SDS011;1889;50.058;8.688;2022-07-23T04:14:49;6.33;;;5.73;;
3747;SDS011;1889;50.058;8.688;2022-07-23T04:17:19;1999.90;;;999.90;;
3747;SDS011;1889;50.058;8.688;2022-07-23T04:19:48;4.60;;;4.23;;
3747;SDS011;1889;50.058;8.688;2022-07-23T04:22:17;7.00;;;5.93;;
3747;SDS011;1889;50.058;8.688;2022-07-23T04:24:46;6.57;;;5.63;;
3747;SDS011;1889;50.058;8.688;2022-07-23T04:27:16;7.47;;;5.87;;
3747;SDS011;1889;50.058;8.688;2022-07-23T04:29:45;6.33;;;5.60;;
3747;SDS011;1889;50.058;8.688;2022-07-23T04:32:14;6.97;;;6.37;;
3747;SDS011;1889;50.058;8.688;2022-07-23T04:34:43;7.80;;;7.03;;
3747;SDS011;1889;50.058;8.688;2022-07-23T04:37:12;7.10;;;6.13;;
3747;SDS011;1889;50.058;8.688;2022-07-23T04:39:41;6.43;;;5.80;;
3747;SDS011;1889;50.058;8.688;2022-07-23T04:42:11;7.20;;;5.90;;
3747;SDS011;1889;50.058;8.688;2022-07-23T04:44:40;8.43;;;5.40;;
3747;SDS011;1889;50.058;8.688;2022-07-23T04:47:09;9.27;;;6.23;;
3747;SDS011;1889;50.058;8.688;2022-07-23T04:49:38;6.83;;;6.03;;
3747;SDS011;1889;50.058;8.688;2022-07-23T04:52:07;7.10;;;6.20;;
3747;SDS011;1889;50.058;8.688;2022-07-23T04:54:36;8.97;;;6.10;;
3747;SDS011;1889;50.058;8.688;2022-07-23T04:57:05;7.30;;;5.77;;
3747;SDS011;1889;50.058;8.688;2022-07-23T04:59:34;6.37;;;5.77;;
3747;SDS011;1889;50.058;8.688;2022-07-23T05:02:03;9.03;;;5.50;;
3747;SDS011;1889;50.058;8.688;2022-07-23T05:04:32;6.37;;;5.57;;
3747;SDS011;1889;50.058;8.688;2022-07-23T05:07:01;6.37;;;5.77;;
3747;SDS011;1889;50.058;8.688;2022-07-23T05:09:30;6.43;;;5.33;;
3747;SDS011;1889;50.058;8.688;2022-07-23T05:12:00;6.17;;;5.57;;
3747;SDS011;1889;50.058;8.688;2022-07-23T05:14:29;7.70;;;5.13;;
3747;SDS011;1889;50.058;8.688;2022-07-23T05:16:58;5.77;;;4.27;;
3747;SDS011;1889;50.058;8.688;2022-07-23T05:19:27;6.73;;;6.03;;
3747;SDS011;1889;50.058;8.688;2022-07-23T05:21:56;5.97;;;5.30;;
3747;SDS011;1889;50.058;8.688;2022-07-23T05:24:25;5.47;;;4.70;;
3747;SDS011;1889;50.058;8.688;2022-07-23T05:26:54;7.37;;;5.20;;
3747;SDS011;1889;50.058;8.688;2022-07-23T05:29:23;6.30;;;5.70;;
3747;SDS011;1889;50.058;8.688;2022-07-23T05:31:52;8.03;;;4.90;;
3747;SDS011;1889;50.058;8.688;2022-07-23T05:34:21;6.40;;;5.10;;
3747;SDS011;1889;50.058;8.688;2022-07-23T05:36:50;6.53;;;5.47;;
3747;SDS011;1889;50.058;8.688;2022-07-23T05:39:19;5.77;;;5.13;;
3747;SDS011;1889;50.058;8.688;2022-07-23T05:41:48;8.53;;;5.67;;
3747;SDS011;1889;50.058;8.688;2022-07-23T05:44:17;9.07;;;5.17;;
3747;SDS011;1889;50.058;8.688;2022-07-23T05:46:47;7.67;;;5.40;;
3747;SDS011;1889;50.058;8.688;2022-07-23T05:49:16;7.27;;;4.80;;
3747;SDS011;1889;50.058;8.688;2022-07-23T05:51:45;6.23;;;4.60;;
3747;SDS011;1889;50.058;8.688;2022-07-23T05:54:14;8.53;;;4.53;;
3747;SDS011;1889;50.058;8.688;2022-07-23T05:56:43;5.00;;;4.17;;
3747;SDS011;1889;50.058;8.688;2022-07-23T05:59:12;6.53;;;4.77;;
3747;SDS011;1889;50.058;8.688;2022-07-23T06:01:42;7.93;;;4.90;;
3747;SDS011;1889;50.058;8.688;2022-07-23T06:04:11;6.13;;;4.87;;
3747;SDS011;1889;50.058;8.688;2022-07-23T06:06:40;9.07;;;4.67;;
3747;SDS011;1889;50.058;8.688;2022-07-23T06:09:09;5.03;;;4.03;;
3747;SDS011;1889;50.058;8.688;2022-07-23T06:11:40;9.00;;;4.77;;
3747;SDS011;1889;50.058;8.688;2022-07-23T06:14:09;7.80;;;4.97;;
3747;SDS011;1889;50.058;8.688;2022-07-23T06:16:38;6.70;;;4.80;;
3747;SDS011;1889;50.058;8.688;2022-07-23T06:19:07;7.70;;;5.43;;
3747;SDS011;1889;50.058;8.688;2022-07-23T06:21:36;7.20;;;4.97;;
3747;SDS011;1889;50.058;8.688;2022-07-23T06:24:05;6.13;;;5.23;;
3747;SDS011;1889;50.058;8.688;2022-07-23T06:26:34;5.67;;;4.93;;
3747;SDS011;1889;50.058;8.688;2022-07-23T06:29:03;6.13;;;4.87;;
3747;SDS011;1889;50.058;8.688;2022-07-23T06:31:33;7.23;;;5.00;;
3747;SDS011;1889;50.058;8.688;2022-07-23T06:34:02;8.47;;;4.80;;
3747;SDS011;1889;50.058;8.688;2022-07-23T06:36:31;11.53;;;5.27;;
3747;SDS011;1889;50.058;8.688;2022-07-23T06:39:00;5.77;;;4.33;;
3747;SDS011;1889;50.058;8.688;2022-07-23T06:41:29;7.20;;;4.67;;
3747;SDS011;1889;50.058;8.688;2022-07-23T06:43:58;5.43;;;4.17;;
3747;SDS011;1889;50.058;8.688;2022-07-23T06:46:27;8.37;;;4.43;;
3747;SDS011;1889;50.058;8.688;2022-07-23T06:48:56;7.07;;;4.13;;
3747;SDS011;1889;50.058;8.688;2022-07-23T06:51:25;5.47;;;4.43;;
3747;SDS011;1889;50.058;8.688;2022-07-23T06:53:54;9.63;;;5.17;;
3747;SDS011;1889;50.058;8.688;2022-07-23T06:56:23;5.47;;;4.57;;
3747;SDS011;1889;50.058;8.688;2022-07-23T06:58:52;5.23;;;4.10;;
3747;SDS011;1889;50.058;8.688;2022-07-23T07:01:21;5.40;;;4.20;;
3747;SDS011;1889;50.058;8.688;2022-07-23T07:03:50;6.17;;;4.43;;
3747;SDS011;1889;50.058;8.688;2022-07-23T07:06:19;6.77;;;3.83;;
3747;SDS011;1889;50.058;8.688;2022-07-23T07:08:48;5.20;;;4.07;;
3747;SDS011;1889;50.058;8.688;2022-07-23T07:11:17;5.63;;;4.53;;
3747;SDS011;1889;50.058;8.688;2022-07-23T07:13:46;4.37;;;3.60;;
3747;SDS011;1889;50.058;8.688;2022-07-23T07:16:15;5.50;;;3.70;;
3747;SDS011;1889;50.058;8.688;2022-07-23T07:18:44;4.90;;;3.67;;
3747;SDS011;1889;50.058;8.688;2022-07-23T07:21:13;4.43;;;3.63;;
3747;SDS011;1889;50.058;8.688;2022-07-23T07:23:43;5.00;;;4.30;;
3747;SDS011;1889;50.058;8.688;2022-07-23T07:26:12;6.07;;;3.77;;
3747;SDS011;1889;50.058;8.688;2022-07-23T07:28:41;6.47;;;4.17;;
3747;SDS011;1889;50.058;8.688;2022-07-23T07:31:10;7.67;;;3.67;;
3747;SDS011;1889;50.058;8.688;2022-07-23T07:33:39;3.57;;;3.27;;
3747;SDS011;1889;50.058;8.688;2022-07-23T07:36:08;4.30;;;3.90;;
3747;SDS011;1889;50.058;8.688;2022-07-23T07:38:37;4.47;;;3.93;;
3747;SDS011;1889;50.058;8.688;2022-07-23T07:41:06;5.07;;;4.07;;
3747;SDS011;1889;50.058;8.688;2022-07-23T07:43:37;6.50;;;4.40;;
3747;SDS011;1889;50.058;8.688;2022-07-23T07:46:06;4.10;;;3.70;;
3747;SDS011;1889;50.058;8.688;2022-07-23T07:48:37;4.90;;;4.00;;
3747;SDS011;1889;50.058;8.688;2022-07-23T07:51:06;6.07;;;3.80;;
3747;SDS011;1889;50.058;8.688;2022-07-23T07:53:35;4.67;;;4.03;;
3747;SDS011;1889;50.058;8.688;2022-07-23T07:56:04;7.60;;;3.90;;
3747;SDS011;1889;50.058;8.688;2022-07-23T07:58:33;4.23;;;3.83;;
3747;SDS011;1889;50.058;8.688;2022-07-23T08:01:02;4.03;;;3.63;;
3747;SDS011;1889;50.058;8.688;2022-07-23T08:03:31;5.40;;;3.97;;
3747;SDS011;1889;50.058;8.688;2022-07-23T08:06:00;333.90;;;26.97;;
3747;SDS011;1889;50.058;8.688;2022-07-23T08:08:29;4.03;;;2.90;;
3747;SDS011;1889;50.058;8.688;2022-07-23T08:10:58;7.77;;;4.10;;
3747;SDS011;1889;50.058;8.688;2022-07-23T08:13:27;4.20;;;3.10;;
3747;SDS011;1889;50.058;8.688;2022-07-23T08:15:56;6.50;;;3.40;;
3747;SDS011;1889;50.058;8.688;2022-07-23T08:18:25;7.70;;;4.00;;
3747;SDS011;1889;50.058;8.688;2022-07-23T08:20:54;3.60;;;3.30;;
3747;SDS011;1889;50.058;8.688;2022-07-23T08:23:23;4.47;;;3.50;;
3747;SDS011;1889;50.058;8.688;2022-07-23T08:25:52;4.30;;;3.50;;
3747;SDS011;1889;50.058;8.688;2022-07-23T08:28:23;4.50;;;2.97;;
3747;SDS011;1889;50.058;8.688;2022-07-23T08:30:53;4.63;;;3.07;;
3747;SDS011;1889;50.058;8.688;2022-07-23T08:33:22;4.37;;;2.60;;
3747;SDS011;1889;50.058;8.688;2022-07-23T08:35:51;2.83;;;2.03;;
3747;SDS011;1889;50.058;8.688;2022-07-23T08:38:20;3.93;;;2.70;;
3747;SDS011;1889;50.058;8.688;2022-07-23T08:40:56;3.60;;;2.93;;
3747;SDS011;1889;50.058;8.688;2022-07-23T08:43:22;2.50;;;2.13;;
3747;SDS011;1889;50.058;8.688;2022-07-23T08:45:53;2.97;;;2.67;;
3747;SDS011;1889;50.058;8.688;2022-07-23T08:48:28;2.90;;;1.90;;
3747;SDS011;1889;50.058;8.688;2022-07-23T08:51:02;2.73;;;1.70;;
3747;SDS011;1889;50.058;8.688;2022-07-23T08:53:32;1.50;;;1.43;;
3747;SDS011;1889;50.058;8.688;2022-07-23T08:56:06;3.30;;;2.70;;
3747;SDS011;1889;50.058;8.688;2022-07-23T08:58:35;4.30;;;1.40;;
3747;SDS011;1889;50.058;8.688;2022-07-23T09:01:04;1.83;;;1.73;;
3747;SDS011;1889;50.058;8.688;2022-07-23T09:03:35;1.77;;;1.67;;
3747;SDS011;1889;50.058;8.688;2022-07-23T09:06:06;1.70;;;1.13;;
3747;SDS011;1889;50.058;8.688;2022-07-23T09:08:36;4.17;;;2.00;;
3747;SDS011;1889;50.058;8.688;2022-07-23T09:11:10;4.97;;;3.27;;
3747;SDS011;1889;50.058;8.688;2022-07-23T09:13:42;4.47;;;3.20;;
3747;SDS011;1889;50.058;8.688;2022-07-23T09:16:17;5.80;;;2.97;;
3747;SDS011;1889;50.058;8.688;2022-07-23T09:18:50;3.47;;;2.83;;
3747;SDS011;1889;50.058;8.688;2022-07-23T09:21:38;3.13;;;2.83;;
3747;SDS011;1889;50.058;8.688;2022-07-23T09:24:01;2.97;;;2.70;;
3747;SDS011;1889;50.058;8.688;2022-07-23T09:31:49;3.17;;;2.27;;
3747;SDS011;1889;50.058;8.688;2022-07-23T09:34:23;3.33;;;1.80;;
3747;SDS011;1889;50.058;8.688;2022-07-23T09:36:55;1.67;;;1.57;;
3747;SDS011;1889;50.058;8.688;2022-07-23T09:39:26;2.73;;;1.57;;
3747;SDS011;1889;50.058;8.688;2022-07-23T09:41:57;5.87;;;2.43;;
3747;SDS011;1889;50.058;8.688;2022-07-23T09:44:28;2.70;;;2.50;;
3747;SDS011;1889;50.058;8.688;2022-07-23T09:46:58;2.53;;;2.13;;
3747;SDS011;1889;50.058;8.688;2022-07-23T09:49:28;10.50;;;2.00;;
3747;SDS011;1889;50.058;8.688;2022-07-23T09:51:58;1.67;;;1.57;;
3747;SDS011;1889;50.058;8.688;2022-07-23T09:54:33;3.13;;;1.73;;
3747;SDS011;1889;50.058;8.688;2022-07-23T09:59:37;2.03;;;1.83;;
3747;SDS011;1889;50.058;8.688;2022-07-23T10:02:08;2.23;;;1.07;;
3747;SDS011;1889;50.058;8.688;2022-07-23T10:04:39;6.27;;;4.73;;
3747;SDS011;1889;50.058;8.688;2022-07-23T10:07:09;4.17;;;3.77;;
3747;SDS011;1889;50.058;8.688;2022-07-23T10:09:39;6.67;;;5.10;;
3747;SDS011;1889;50.058;8.688;2022-07-23T10:12:10;3.43;;;2.90;;
3747;SDS011;1889;50.058;8.688;2022-07-23T10:15:00;291.37;;;181.70;;
3747;SDS011;1889;50.058;8.688;2022-07-23T10:17:30;45.83;;;4.70;;
3747;SDS011;1889;50.058;8.688;2022-07-23T10:19:59;5.20;;;4.70;;
3747;SDS011;1889;50.058;8.688;2022-07-23T10:22:33;5.50;;;5.00;;
3747;SDS011;1889;50.058;8.688;2022-07-23T10:30:47;1999.90;;;999.90;;
3747;SDS011;1889;50.058;8.688;2022-07-23T10:36:52;1999.90;;;999.90;;
3747;SDS011;1889;50.058;8.688;2022-07-23T10:39:30;74.47;;;69.47;;
3747;SDS011;1889;50.058;8.688;2022-07-23T10:42:08;98.87;;;9.90;;
3747;SDS011;1889;50.058;8.688;2022-07-23T10:44:40;5.17;;;4.77;;
3747;SDS011;1889;50.058;8.688;2022-07-23T10:47:35;341.00;;;101.23;;
3747;SDS011;1889;50.058;8.688;2022-07-23T10:49:52;139.17;;;106.30;;
3747;SDS011;1889;50.058;8.688;2022-07-23T10:52:27;6.77;;;6.10;;
3747;SDS011;1889;50.058;8.688;2022-07-23T10:57:49;6.77;;;5.60;;
3747;SDS011;1889;50.058;8.688;2022-07-23T11:00:22;6.27;;;5.67;;
3747;SDS011;1889;50.058;8.688;2022-07-23T11:02:53;6.10;;;5.47;;
3747;SDS011;1889;50.058;8.688;2022-07-23T11:05:39;6.47;;;5.60;;
3747;SDS011;1889;50.058;8.688;2022-07-23T11:10:39;5.77;;;5.27;;
3747;SDS011;1889;50.058;8.688;2022-07-23T11:24:06;6.30;;;5.70;;
3747;SDS011;1889;50.058;8.688;2022-07-23T11:32:17;6.03;;;5.40;;
3747;SDS011;1889;50.058;8.688;2022-07-23T11:34:52;6.27;;;5.67;;
3747;SDS011;1889;50.058;8.688;2022-07-23T11:37:28;5.57;;;5.13;;
3747;SDS011;1889;50.058;8.688;2022-07-23T11:40:08;6.50;;;5.93;;
3747;SDS011;1889;50.058;8.688;2022-07-23T11:42:50;6.20;;;5.70;;
3747;SDS011;1889;50.058;8.688;2022-07-23T11:45:17;6.83;;;6.17;;
3747;SDS011;1889;50.058;8.688;2022-07-23T11:47:46;6.50;;;5.73;;
3747;SDS011;1889;50.058;8.688;2022-07-23T11:50:16;6.37;;;5.77;;
3747;SDS011;1889;50.058;8.688;2022-07-23T11:52:45;11.70;;;6.33;;
3747;SDS011;1889;50.058;8.688;2022-07-23T11:55:14;5.90;;;5.30;;
3747;SDS011;1889;50.058;8.688;2022-07-23T11:57:43;5.73;;;5.23;;
3747;SDS011;1889;50.058;8.688;2022-07-23T12:00:14;6.77;;;6.07;;
3747;SDS011;1889;50.058;8.688;2022-07-23T12:02:46;6.63;;;4.67;;
3747;SDS011;1889;50.058;8.688;2022-07-23T12:05:30;5.93;;;5.23;;
3747;SDS011;1889;50.058;8.688;2022-07-23T12:07:55;5.53;;;5.03;;
3747;SDS011;1889;50.058;8.688;2022-07-23T12:10:35;6.10;;;5.50;;
3747;SDS011;1889;50.058;8.688;2022-07-23T12:13:11;5.87;;;5.23;;
3747;SDS011;1889;50.058;8.688;2022-07-23T12:15:47;5.60;;;5.00;;
3747;SDS011;1889;50.058;8.688;2022-07-23T12:18:16;6.00;;;5.50;;
3747;SDS011;1889;50.058;8.688;2022-07-23T12:20:51;5.37;;;4.87;;
3747;SDS011;1889;50.058;8.688;2022-07-23T12:23:23;5.73;;;5.23;;
3747;SDS011;1889;50.058;8.688;2022-07-23T12:25:54;6.67;;;4.90;;
3747;SDS011;1889;50.058;8.688;2022-07-23T12:28:28;5.40;;;4.93;;
3747;SDS011;1889;50.058;8.688;2022-07-23T12:31:00;757.00;;;67.43;;
3747;SDS011;1889;50.058;8.688;2022-07-23T12:33:38;1999.90;;;999.90;;
3747;SDS011;1889;50.058;8.688;2022-07-23T12:36:05;30.73;;;29.63;;
3747;SDS011;1889;50.058;8.688;2022-07-23T12:38:41;1999.90;;;999.90;;
3747;SDS011;1889;50.058;8.688;2022-07-23T12:41:08;1999.90;;;999.90;;
3747;SDS011;1889;50.058;8.688;2022-07-23T12:43:39;1999.90;;;999.90;;
3747;SDS011;1889;50.058;8.688;2022-07-23T12:46:14;1361.13;;;690.97;;
3747;SDS011;1889;50.058;8.688;2022-07-23T12:51:25;6.30;;;5.80;;
3747;SDS011;1889;50.058;8.688;2022-07-23T12:54:04;5.90;;;5.40;;
3747;SDS011;1889;50.058;8.688;2022-07-23T12:56:34;6.50;;;5.90;;
3747;SDS011;1889;50.058;8.688;2022-07-23T12:59:05;6.23;;;5.63;;
3747;SDS011;1889;50.058;8.688;2022-07-23T13:01:41;6.17;;;5.67;;
3747;SDS011;1889;50.058;8.688;2022-07-23T13:04:14;6.40;;;5.80;;
3747;SDS011;1889;50.058;8.688;2022-07-23T13:06:49;5.70;;;5.30;;
3747;SDS011;1889;50.058;8.688;2022-07-23T13:09:21;5.97;;;5.47;;
3747;SDS011;1889;50.058;8.688;2022-07-23T13:11:52;5.73;;;5.33;;
3747;SDS011;1889;50.058;8.688;2022-07-23T13:14:23;5.30;;;4.77;;
3747;SDS011;1889;50.058;8.688;2022-07-23T13:16:53;5.80;;;5.23;;
3747;SDS011;1889;50.058;8.688;2022-07-23T13:19:23;5.57;;;5.10;;
3747;SDS011;1889;50.058;8.688;2022-07-23T13:21:53;6.27;;;5.77;;
3747;SDS011;1889;50.058;8.688;2022-07-23T13:24:23;6.80;;;5.27;;
3747;SDS011;1889;50.058;8.688;2022-07-23T13:26:52;5.73;;;5.23;;
3747;SDS011;1889;50.058;8.688;2022-07-23T13:29:21;5.63;;;5.03;;
3747;SDS011;1889;50.058;8.688;2022-07-23T13:31:50;5.80;;;5.30;;
3747;SDS011;1889;50.058;8.688;2022-07-23T13:34:19;7.00;;;5.33;;
3747;SDS011;1889;50.058;8.688;2022-07-23T13:36:48;5.17;;;4.73;;
3747;SDS011;1889;50.058;8.688;2022-07-23T13:39:17;6.53;;;5.20;;
3747;SDS011;1889;50.058;8.688;2022-07-23T13:41:46;5.80;;;5.30;;
3747;SDS011;1889;50.058;8.688;2022-07-23T13:44:15;5.67;;;5.03;;
3747;SDS011;1889;50.058;8.688;2022-07-23T13:46:46;5.60;;;5.10;;
3747;SDS011;1889;50.058;8.688;2022-07-23T13:49:18;6.00;;;5.40;;
3747;SDS011;1889;50.058;8.688;2022-07-23T13:51:48;6.60;;;5.43;;
3747;SDS011;1889;50.058;8.688;2022-07-23T13:54:17;5.60;;;5.10;;
3747;SDS011;1889;50.058;8.688;2022-07-23T13:56:46;7.07;;;5.30;;
3747;SDS011;1889;50.058;8.688;2022-07-23T13:59:15;5.30;;;4.80;;
3747;SDS011;1889;50.058;8.688;2022-07-23T14:01:44;5.17;;;4.67;;
3747;SDS011;1889;50.058;8.688;2022-07-23T14:04:13;5.23;;;4.83;;
3747;SDS011;1889;50.058;8.688;2022-07-23T14:06:42;5.70;;;5.20;;
3747;SDS011;1889;50.058;8.688;2022-07-23T14:09:11;9.50;;;5.60;;
3747;SDS011;1889;50.058;8.688;2022-07-23T14:11:41;6.37;;;5.33;;
3747;SDS011;1889;50.058;8.688;2022-07-23T14:14:10;7.13;;;5.37;;
3747;SDS011;1889;50.058;8.688;2022-07-23T14:16:39;5.70;;;5.20;;
3747;SDS011;1889;50.058;8.688;2022-07-23T14:19:08;5.83;;;5.33;;
3747;SDS011;1889;50.058;8.688;2022-07-23T14:21:38;5.13;;;4.73;;
3747;SDS011;1889;50.058;8.688;2022-07-23T14:24:07;6.13;;;5.60;;
3747;SDS011;1889;50.058;8.688;2022-07-23T14:26:36;5.90;;;5.40;;
3747;SDS011;1889;50.058;8.688;2022-07-23T14:29:05;6.00;;;5.23;;
3747;SDS011;1889;50.058;8.688;2022-07-23T14:31:34;495.87;;;54.73;;
3747;SDS011;1889;50.058;8.688;2022-07-23T14:34:03;548.33;;;55.73;;
3747;SDS011;1889;50.058;8.688;2022-07-23T14:36:33;1999.90;;;999.90;;
3747;SDS011;1889;50.058;8.688;2022-07-23T14:39:02;1999.90;;;999.90;;
3747;SDS011;1889;50.058;8.688;2022-07-23T14:41:35;1999.90;;;999.90;;
3747;SDS011;1889;50.058;8.688;2022-07-23T14:44:04;1999.90;;;999.90;;
3747;SDS011;1889;50.058;8.688;2022-07-23T14:46:33;1999.90;;;999.90;;
3747;SDS011;1889;50.058;8.688;2022-07-23T14:49:03;1999.90;;;999.90;;
3747;SDS011;1889;50.058;8.688;2022-07-23T14:51:32;1999.90;;;999.90;;
3747;SDS011;1889;50.058;8.688;2022-07-23T14:54:01;1999.90;;;999.90;;
3747;SDS011;1889;50.058;8.688;2022-07-23T14:56:32;1999.90;;;999.90;;
3747;SDS011;1889;50.058;8.688;2022-07-23T14:59:04;1999.90;;;999.90;;
3747;SDS011;1889;50.058;8.688;2022-07-23T15:01:35;1999.90;;;999.90;;
3747;SDS011;1889;50.058;8.688;2022-07-23T15:04:05;1999.90;;;999.90;;
3747;SDS011;1889;50.058;8.688;2022-07-23T15:06:37;1999.90;;;999.90;;
3747;SDS011;1889;50.058;8.688;2022-07-23T15:09:06;1999.90;;;999.90;;
3747;SDS011;1889;50.058;8.688;2022-07-23T15:11:36;1999.90;;;999.90;;
3747;SDS011;1889;50.058;8.688;2022-07-23T15:14:05;1999.90;;;999.90;;
3747;SDS011;1889;50.058;8.688;2022-07-23T15:16:35;1999.90;;;999.90;;
3747;SDS011;1889;50.058;8.688;2022-07-23T15:19:05;1999.90;;;999.90;;
3747;SDS011;1889;50.058;8.688;2022-07-23T15:21:34;1999.90;;;999.90;;
3747;SDS011;1889;50.058;8.688;2022-07-23T15:24:03;1999.90;;;999.90;;
3747;SDS011;1889;50.058;8.688;2022-07-23T15:26:32;1342.57;;;675.13;;
3747;SDS011;1889;50.058;8.688;2022-07-23T15:29:02;1999.90;;;999.90;;
3747;SDS011;1889;50.058;8.688;2022-07-23T15:31:33;1999.90;;;999.90;;
3747;SDS011;1889;50.058;8.688;2022-07-23T15:34:02;1999.90;;;999.90;;
3747;SDS011;1889;50.058;8.688;2022-07-23T15:36:31;1999.90;;;999.90;;
3747;SDS011;1889;50.058;8.688;2022-07-23T15:39:01;1999.90;;;999.90;;
3747;SDS011;1889;50.058;8.688;2022-07-23T15:41:30;1999.90;;;999.90;;
3747;SDS011;1889;50.058;8.688;2022-07-23T15:43:59;1999.90;;;999.90;;
3747;SDS011;1889;50.058;8.688;2022-07-23T15:46:28;1999.90;;;999.90;;
3747;SDS011;1889;50.058;8.688;2022-07-23T15:48:58;1999.90;;;999.90;;
3747;SDS011;1889;50.058;8.688;2022-07-23T15:51:27;1999.90;;;999.90;;
3747;SDS011;1889;50.058;8.688;2022-07-23T15:53:58;1999.90;;;999.90;;
3747;SDS011;1889;50.058;8.688;2022-07-23T15:56:27;1999.90;;;999.90;;
3747;SDS011;1889;50.058;8.688;2022-07-23T15:58:56;1999.90;;;999.90;;
3747;SDS011;1889;50.058;8.688;2022-07-23T16:01:25;1999.90;;;999.90;;
3747;SDS011;1889;50.058;8.688;2022-07-23T16:03:56;1999.90;;;999.90;;